Time;durP1;ratioP1;P1;durP2;ratioP2;P2;SDS_P1;SDS_P2;PMS_P1;PMS_P2;Temp;Humidity;BMP_temperature;BMP_pressure;BME280_temperature;BME280_humidity;BME280_pressure;Samples;Min_cycle;Max_cycle;Signal;HPM_P1;HPM_P2
2022/12/14 00:01:18;;;;;;;44.28;21.08;;;;;;;-2.16;44.07;100855.22;7394271;19;20003;-61
2022/12/14 00:03:45;;;;;;;43.05;20.15;;;;;;;-1.96;43.80;100847.41;7395719;19;20022;-61
2022/12/14 00:06:14;;;;;;;45.15;20.63;;;;;;;-1.91;43.33;100842.09;7394113;19;19999;-61
2022/12/14 00:08:41;;;;;;;43.13;19.92;;;;;;;-2.22;43.77;100846.38;7395676;19;20058;-61
2022/12/14 00:11:07;;;;;;;45.60;21.02;;;;;;;-2.14;43.71;100839.75;7394672;19;20074;-61
2022/12/14 00:13:33;;;;;;;47.95;21.17;;;;;;;-2.11;43.78;100844.56;7395812;19;20393;-61
2022/12/14 00:16:06;;;;;;;44.15;20.65;;;;;;;-2.27;43.98;100849.78;7396442;19;20051;-61
2022/12/14 00:18:32;;;;;;;47.05;20.80;;;;;;;-2.40;44.61;100847.53;7395246;19;19999;-61
2022/12/14 00:21:03;;;;;;;45.75;20.75;;;;;;;-2.22;43.81;100846.38;7392755;19;20035;-61
2022/12/14 00:23:29;;;;;;;47.15;20.85;;;;;;;-2.56;44.36;100843.06;7395211;19;20019;-61
2022/12/14 00:25:55;;;;;;;44.08;21.30;;;;;;;-2.62;44.52;100836.88;7393255;19;20006;-61
2022/12/14 00:28:20;;;;;;;51.05;21.60;;;;;;;-2.40;44.10;100839.50;7395974;19;20022;-61
2022/12/14 00:30:46;;;;;;;46.42;22.85;;;;;;;-2.24;43.73;100838.59;7394030;19;20003;-60
2022/12/14 00:33:12;;;;;;;52.60;21.83;;;;;;;-2.24;43.40;100833.25;7392782;19;20002;-60
2022/12/14 00:35:37;;;;;;;44.63;21.13;;;;;;;-2.68;44.25;100830.69;7395711;19;19997;-60
2022/12/14 00:38:03;;;;;;;48.28;19.98;;;;;;;-2.84;44.67;100831.56;7395069;19;20006;-60
2022/12/14 00:40:29;;;;;;;47.17;20.50;;;;;;;-2.92;44.82;100830.16;7394301;19;20399;-60
2022/12/14 00:42:54;;;;;;;47.50;20.92;;;;;;;-3.01;45.11;100826.31;7393944;19;19995;-60
2022/12/14 00:45:20;;;;;;;46.92;20.67;;;;;;;-2.83;45.02;100825.16;7394683;19;20009;-61
2022/12/14 00:47:46;;;;;;;48.70;19.73;;;;;;;-3.08;45.27;100817.66;7394108;19;20009;-60
2022/12/14 00:50:11;;;;;;;46.00;19.92;;;;;;;-3.07;45.37;100825.44;7393952;19;19999;-60
2022/12/14 00:52:37;;;;;;;46.20;20.30;;;;;;;-2.89;44.75;100823.50;7392833;19;20426;-61
2022/12/14 00:55:03;;;;;;;46.67;20.90;;;;;;;-3.18;45.21;100823.69;7394681;19;19998;-60
2022/12/14 00:57:29;;;;;;;44.95;19.23;;;;;;;-2.94;45.04;100823.44;7394878;19;20439;-60
2022/12/14 00:59:55;;;;;;;42.58;20.25;;;;;;;-2.85;44.87;100824.59;7394603;19;20006;-61
2022/12/14 01:02:20;;;;;;;46.05;19.45;;;;;;;-2.70;44.33;100827.44;7391872;19;20450;-61
2022/12/14 01:04:46;;;;;;;44.35;20.58;;;;;;;-2.96;44.83;100821.81;7394649;19;20003;-61
2022/12/14 01:07:12;;;;;;;43.65;19.08;;;;;;;-3.19;45.38;100819.41;7391803;19;20039;-59
2022/12/14 01:09:37;;;;;;;42.42;18.95;;;;;;;-3.33;45.57;100817.09;7392475;19;19991;-59
2022/12/14 01:12:03;;;;;;;42.10;18.90;;;;;;;-3.33;45.71;100816.28;7391486;19;20002;-59
2022/12/14 01:14:29;;;;;;;42.53;19.05;;;;;;;-3.15;45.21;100813.34;7393653;19;19990;-60
2022/12/14 01:16:55;;;;;;;47.95;20.52;;;;;;;-3.17;45.27;100811.97;7392294;19;19999;-60
2022/12/14 01:19:21;;;;;;;44.15;19.05;;;;;;;-3.16;45.20;100816.25;7394151;19;19995;-60
2022/12/14 01:21:46;;;;;;;43.70;18.80;;;;;;;-3.01;44.75;100812.97;7391978;19;20003;-61
2022/12/14 01:24:12;;;;;;;44.40;18.73;;;;;;;-3.18;44.96;100813.00;7392448;19;19990;-61
2022/12/14 01:26:38;;;;;;;43.65;18.63;;;;;;;-3.33;45.36;100811.78;7392267;19;20016;-61
2022/12/14 01:29:05;;;;;;;42.72;18.17;;;;;;;-3.37;45.34;100809.84;7393277;19;20023;-61
2022/12/14 01:31:34;;;;;;;40.88;18.23;;;;;;;-3.48;45.43;100810.75;7390245;19;20003;-60
2022/12/14 01:34:00;;;;;;;44.03;18.25;;;;;;;-3.37;45.34;100809.84;7391877;19;20007;-61
2022/12/14 01:36:29;;;;;;;43.30;19.25;;;;;;;-3.25;44.95;100805.19;7393102;19;20006;-60
2022/12/14 01:39:01;;;;;;;43.45;19.55;;;;;;;-3.16;44.52;100806.38;7392392;19;20009;-60
2022/12/14 01:41:30;;;;;;;40.95;17.77;;;;;;;-3.19;44.46;100806.84;7391606;19;19999;-61
2022/12/14 01:43:59;;;;;;;43.05;19.98;;;;;;;-3.34;44.55;100802.13;7392363;19;20022;-60
2022/12/14 01:46:48;;;;;;;43.17;19.45;;;;;;;-2.87;43.63;100803.47;7392360;19;19995;-61
2022/12/14 01:49:27;;;;;;;47.38;22.27;;;;;;;-2.74;43.27;100804.16;7391357;19;20022;-61
2022/12/14 01:52:14;;;;;;;53.38;24.15;;;;;;;-3.09;43.48;100789.38;7391939;19;20058;-61
2022/12/14 01:54:55;;;;;;;44.58;20.67;;;;;;;-3.14;43.93;100792.78;7391702;19;19998;-61
2022/12/14 01:57:27;;;;;;;46.20;21.10;;;;;;;-3.36;44.27;100790.91;7390774;19;20010;-60
2022/12/14 01:59:55;;;;;;;47.30;20.45;;;;;;;-3.48;44.32;100786.72;7391090;19;19999;-60
2022/12/14 02:02:22;;;;;;;42.58;19.60;;;;;;;-3.62;44.31;100780.94;7391428;19;19998;-61
2022/12/14 02:04:55;;;;;;;48.75;20.55;;;;;;;-3.94;44.78;100784.22;7392353;19;20019;-60
2022/12/14 02:07:22;;;;;;;49.13;20.60;;;;;;;-3.79;44.20;100776.44;7391899;19;20022;-60
2022/12/14 02:09:50;;;;;;;48.33;21.17;;;;;;;-3.89;44.36;100782.44;7392604;19;20001;-61
2022/12/14 02:12:24;;;;;;;41.67;19.67;;;;;;;-4.08;44.74;100779.22;7390062;19;20006;-61
2022/12/14 02:14:51;;;;;;;50.13;20.80;;;;;;;-3.95;44.70;100782.59;7391319;19;20450;-62
2022/12/14 02:17:18;;;;;;;47.15;20.90;;;;;;;-3.86;44.56;100775.81;7390111;19;20055;-60
2022/12/14 02:19:45;;;;;;;47.58;20.15;;;;;;;-3.80;44.18;100771.34;7390496;19;19999;-61
2022/12/14 02:22:54;;;;;;;43.47;20.95;;;;;;;-3.98;44.49;100767.09;7389874;19;20002;-60
2022/12/14 02:25:45;;;;;;;46.97;20.50;;;;;;;-4.07;44.78;100766.69;7389708;19;19999;-60
2022/12/14 02:28:30;;;;;;;49.60;21.25;;;;;;;-3.50;43.90;100757.63;7389188;19;20009;-60
2022/12/14 02:31:05;;;;;;;45.72;20.17;;;;;;;-3.45;43.65;100760.34;7388687;19;20118;-61
2022/12/14 02:33:37;;;;;;;43.55;20.23;;;;;;;-3.82;44.40;100754.81;7388018;19;20422;-61
2022/12/14 02:36:05;;;;;;;51.28;22.05;;;;;;;-3.88;44.16;100753.94;7391375;19;20009;-61
2022/12/14 02:38:45;;;;;;;42.63;19.90;;;;;;;-3.82;43.97;100750.25;7391353;19;20009;-61
2022/12/14 02:41:20;;;;;;;43.78;18.83;;;;;;;-3.76;44.01;100745.81;7390210;19;20006;-60
2022/12/14 02:43:56;;;;;;;41.03;18.55;;;;;;;-3.71;43.86;100746.69;7398473;19;20018;-60
2022/12/14 02:46:32;;;;;;;42.92;19.15;;;;;;;-3.67;43.87;100736.31;7405400;19;20058;-59
2022/12/14 02:49:09;;;;;;;40.38;17.67;;;;;;;-3.88;43.86;100729.94;7404711;19;20332;-58
2022/12/14 02:51:53;;;;;;;43.65;18.38;;;;;;;-4.28;43.77;100730.94;7404172;19;20007;-59
2022/12/14 02:54:22;;;;;;;;;;;;;;;-4.55;44.14;100733.44;7405146;19;20577;-59
2022/12/14 02:56:58;;;;;;;37.58;16.73;;;;;;;-4.51;44.84;100731.91;7404955;19;19911;-59
2022/12/14 02:59:25;;;;;;;44.95;18.02;;;;;;;-4.38;44.64;100720.09;7403159;19;20316;-60
2022/12/14 03:01:52;;;;;;;40.85;18.35;;;;;;;-4.26;44.60;100724.31;7403328;19;20022;-59
2022/12/14 03:04:17;;;;;;;40.38;18.40;;;;;;;-4.14;44.33;100721.53;7403923;19;20006;-60
2022/12/14 03:06:58;;;;;;;40.70;18.40;;;;;;;-3.95;43.87;100719.44;7404702;19;20023;-59
2022/12/14 03:09:28;;;;;;;37.83;16.88;;;;;;;-3.77;43.56;100723.66;7405218;19;20010;-59
2022/12/14 03:11:59;;;;;;;43.63;18.70;;;;;;;-3.76;43.32;100732.47;7402503;19;20018;-59
2022/12/14 03:14:39;;;;;;;44.15;19.45;;;;;;;-3.70;43.32;100726.16;7404841;19;20127;-59
2022/12/14 03:17:18;;;;;;;37.17;16.63;;;;;;;-3.66;43.33;100726.44;7404854;19;19998;-59
2022/12/14 03:19:57;;;;;;;37.75;17.40;;;;;;;-3.68;43.31;100725.91;7405538;19;20002;-59
2022/12/14 03:22:28;;;;;;;40.45;17.45;;;;;;;-4.22;43.78;100713.97;7400978;19;19995;-60
2022/12/14 03:25:00;;;;;;;39.28;17.67;;;;;;;-4.59;44.62;100709.13;7402621;19;20075;-60
2022/12/14 03:27:31;;;;;;;40.95;18.45;;;;;;;-4.68;44.71;100702.59;7402071;19;20486;-60
2022/12/14 03:30:24;;;;;;;39.65;18.05;;;;;;;-4.63;43.99;100698.16;7404079;19;20007;-61
2022/12/14 03:33:00;;;;;;;39.03;17.55;;;;;;;-4.60;44.20;100696.84;7402570;19;20035;-60
2022/12/14 03:35:38;;;;;;;38.67;17.20;;;;;;;-4.68;44.10;100691.94;7402626;19;20008;-60
2022/12/14 03:38:29;;;;;;;39.90;16.75;;;;;;;-4.65;44.09;100689.59;7404558;19;20002;-60
2022/12/14 03:41:09;;;;;;;39.25;17.52;;;;;;;-4.56;44.30;100684.69;7400512;19;20062;-60
2022/12/14 03:43:44;;;;;;;43.83;19.13;;;;;;;-4.38;43.91;100677.47;7401342;19;20062;-60
2022/12/14 03:46:15;;;;;;;37.63;18.23;;;;;;;-3.81;42.58;100671.88;7404348;19;20003;-60
2022/12/14 03:48:55;;;;;;;45.72;18.63;;;;;;;-3.61;41.83;100676.66;7403192;19;20491;-60
2022/12/14 03:51:34;;;;;;;44.17;18.77;;;;;;;-3.86;41.88;100668.31;7402220;19;20364;-60
2022/12/14 03:54:07;;;;;;;45.00;19.40;;;;;;;-4.68;43.64;100668.78;7401577;19;19995;-61
2022/12/14 03:56:37;;;;;;;35.20;17.58;;;;;;;-4.17;43.08;100663.38;7394973;19;20011;-60
2022/12/14 03:59:10;;;;;;;39.05;16.88;;;;;;;-3.84;42.50;100660.91;7397119;19;20079;-60
2022/12/14 04:02:02;;;;;;;45.20;19.10;;;;;;;-4.48;43.18;100667.50;7394905;19;20467;-60
2022/12/14 04:04:48;;;;;;;39.95;17.48;;;;;;;-4.73;43.49;100665.19;7393582;19;20003;-60
2022/12/14 04:07:28;;;;;;;40.92;16.73;;;;;;;-4.75;43.66;100659.31;7396012;19;20003;-60
2022/12/14 04:18:55;;;;;;;41.17;17.75;;;;;;;-4.97;44.25;100657.38;7396422;19;20050;-60
2022/12/14 04:18:56;;;;;;;39.70;16.80;;;;;;;-4.62;43.45;100651.00;7395432;19;20040;-61
2022/12/14 04:21:44;;;;;;;38.20;15.77;;;;;;;-4.32;42.78;100649.84;7392409;19;20013;-61
2022/12/14 04:27:28;;;;;;;39.35;16.52;;;;;;;-4.14;42.42;100646.09;7395974;19;20006;-60
2022/12/14 04:29:56;;;;;;;38.70;15.75;;;;;;;-3.87;41.76;100643.50;7394234;19;20010;-61
2022/12/14 04:32:50;;;;;;;36.78;16.50;;;;;;;-4.02;41.43;100635.34;7395153;19;19999;-61
2022/12/14 04:35:28;;;;;;;36.78;16.60;;;;;;;-3.89;41.67;100635.75;7394489;19;20014;-61
2022/12/14 04:38:05;;;;;;;32.92;15.13;;;;;;;-3.89;41.58;100637.63;7394976;19;19990;-60
2022/12/14 04:40:45;;;;;;;33.67;15.45;;;;;;;-4.17;41.74;100635.94;7394444;19;20011;-61
2022/12/14 04:43:15;;;;;;;37.90;16.55;;;;;;;-4.42;42.32;100631.06;7394742;19;20015;-60
2022/12/14 04:45:50;;;;;;;33.28;16.23;;;;;;;-4.66;42.52;100632.03;7393949;19;20482;-60
2022/12/14 04:48:30;;;;;;;33.97;15.23;;;;;;;-4.76;42.66;100634.56;7395001;19;19995;-60
2022/12/14 04:51:10;;;;;;;32.22;15.07;;;;;;;-4.83;42.63;100628.59;7394291;19;20005;-60
2022/12/14 04:53:38;;;;;;;37.17;15.15;;;;;;;-4.82;43.10;100633.69;7394511;19;20001;-60
2022/12/14 04:56:10;;;;;;;35.22;15.13;;;;;;;-4.88;43.30;100636.50;7393527;19;20567;-60
2022/12/14 04:58:36;;;;;;;35.17;15.82;;;;;;;-4.61;42.63;100631.31;7395156;19;20037;-60
2022/12/14 05:01:24;;;;;;;35.35;15.43;;;;;;;-4.76;42.56;100628.44;7392718;19;20023;-60
2022/12/14 05:04:16;;;;;;;32.03;14.85;;;;;;;-4.93;42.98;100629.22;7393557;19;20003;-60
2022/12/14 05:06:56;;;;;;;35.28;15.95;;;;;;;-4.92;43.48;100620.16;7390582;19;20482;-60
2022/12/14 05:09:41;;;;;;;34.17;16.08;;;;;;;-4.89;43.02;100624.22;7393973;19;20010;-60
2022/12/14 05:12:28;;;;;;;37.15;16.02;;;;;;;-4.92;43.33;100632.69;7391795;19;20007;-60
2022/12/14 05:15:06;;;;;;;37.08;15.20;;;;;;;-4.96;43.63;100623.59;7392124;19;20007;-60
2022/12/14 05:17:36;;;;;;;34.58;16.73;;;;;;;-4.94;43.51;100624.94;7393109;19;20017;-60
2022/12/14 05:20:03;;;;;;;38.03;16.67;;;;;;;-4.89;43.44;100629.53;7393458;19;20010;-60
2022/12/14 05:22:29;;;;;;;36.78;16.35;;;;;;;-5.22;43.67;100621.31;7392695;19;20003;-60
2022/12/14 05:24:55;;;;;;;31.67;15.15;;;;;;;-5.39;43.92;100629.22;7393991;19;20002;-60
2022/12/14 05:27:20;;;;;;;35.58;14.70;;;;;;;-5.35;44.11;100637.56;7390951;19;20010;-60
2022/12/14 05:29:46;;;;;;;36.28;15.25;;;;;;;-4.87;43.14;100620.25;7393263;19;19995;-60
2022/12/14 05:32:12;;;;;;;32.47;15.02;;;;;;;-4.76;42.71;100618.56;7390880;19;20010;-60
2022/12/14 05:34:38;;;;;;;35.15;14.85;;;;;;;-4.51;42.24;100620.00;7392868;19;20002;-61
2022/12/14 05:37:04;;;;;;;32.35;14.57;;;;;;;-4.73;42.43;100619.94;7391366;19;20505;-61
2022/12/14 05:39:30;;;;;;;32.88;15.63;;;;;;;-5.00;43.05;100615.28;7393512;19;19994;-59
2022/12/14 05:41:55;;;;;;;29.58;15.07;;;;;;;-5.02;42.92;100612.84;7390657;19;20538;-59
2022/12/14 05:44:21;;;;;;;37.85;15.88;;;;;;;-5.40;43.57;100603.69;7392035;19;20009;-59
2022/12/14 05:46:47;;;;;;;33.42;15.88;;;;;;;-5.27;43.66;100597.25;7392348;19;20026;-59
2022/12/14 05:49:13;;;;;;;32.90;14.95;;;;;;;-4.95;42.90;100594.06;7391633;19;20007;-59
2022/12/14 05:51:38;;;;;;;32.42;14.90;;;;;;;-4.85;42.50;100588.88;7389417;19;20009;-59
2022/12/14 05:54:04;;;;;;;40.83;18.42;;;;;;;-4.54;41.79;100591.19;7392632;19;19999;-60
2022/12/14 05:56:30;;;;;;;48.60;20.02;;;;;;;-4.49;41.49;100586.72;7391988;19;20003;-60
2022/12/14 05:58:56;;;;;;;42.45;19.65;;;;;;;-4.94;42.01;100586.88;7390456;19;20002;-61
2022/12/14 06:01:22;;;;;;;44.00;18.88;;;;;;;-5.32;42.83;100573.19;7391644;19;20014;-60
2022/12/14 06:03:51;;;;;;;38.97;18.60;;;;;;;-5.86;43.97;100588.72;7391179;19;20017;-61
2022/12/14 06:06:17;;;;;;;39.95;18.23;;;;;;;-5.53;43.52;100576.56;7392976;19;20007;-61
2022/12/14 06:08:44;;;;;;;37.72;17.20;;;;;;;-5.41;43.24;100577.31;7392493;19;19999;-63
2022/12/14 06:11:16;;;;;;;35.40;16.00;;;;;;;-5.50;43.33;100576.06;7385770;19;20086;-52
2022/12/14 06:13:42;;;;;;;38.63;16.83;;;;;;;-5.30;43.00;100567.63;7389963;19;20022;-55
2022/12/14 06:16:12;;;;;;;35.35;16.10;;;;;;;-5.60;43.48;100572.19;7391800;19;20021;-54
2022/12/14 06:18:46;;;;;;;38.38;16.52;;;;;;;-5.67;43.22;100571.56;7391336;19;20002;-53
2022/12/14 06:21:14;;;;;;;37.60;16.77;;;;;;;-5.29;43.25;100582.56;7393101;19;20001;-53
2022/12/14 06:23:40;;;;;;;32.65;14.70;;;;;;;-5.09;42.30;100577.56;7390066;19;20002;-53
2022/12/14 06:26:07;;;;;;;31.42;15.00;;;;;;;-5.36;42.48;100581.94;7391776;19;20278;-54
2022/12/14 06:28:34;;;;;;;33.75;14.95;;;;;;;-5.73;43.48;100587.66;7391719;19;20070;-54
2022/12/14 06:31:00;;;;;;;35.40;16.25;;;;;;;-5.43;43.06;100579.41;7391667;19;20002;-53
2022/12/14 06:33:27;;;;;;;38.22;16.92;;;;;;;-5.00;42.33;100575.34;7390480;19;20025;-54
2022/12/14 06:35:53;;;;;;;37.33;15.48;;;;;;;-5.38;42.84;100579.50;7391863;19;19998;-52
2022/12/14 06:38:19;;;;;;;32.78;14.82;;;;;;;-5.54;43.37;100578.41;7389743;19;20054;-54
2022/12/14 06:40:44;;;;;;;33.03;15.07;;;;;;;-5.48;43.26;100580.13;7390711;19;19999;-52
2022/12/14 06:43:11;;;;;;;33.22;14.80;;;;;;;-5.42;43.34;100583.66;7390699;19;20339;-53
2022/12/14 06:45:37;;;;;;;34.88;15.02;;;;;;;-5.60;43.51;100572.19;7390982;19;19998;-54
2022/12/14 06:48:03;;;;;;;34.00;15.10;;;;;;;-5.76;43.76;100581.72;7390816;19;20002;-52
2022/12/14 06:50:29;;;;;;;33.67;14.40;;;;;;;-5.64;43.48;100581.69;7391846;19;19994;-54
2022/12/14 06:52:55;;;;;;;32.85;14.90;;;;;;;-5.05;42.50;100572.56;7390713;19;19987;-54
2022/12/14 06:55:25;;;;;;;35.35;14.35;;;;;;;-5.18;42.27;100573.72;7389792;19;20130;-52
2022/12/14 06:57:51;;;;;;;32.17;14.40;;;;;;;-5.57;42.70;100569.06;7391158;19;20006;-50
2022/12/14 07:00:18;;;;;;;34.90;14.60;;;;;;;-5.99;43.49;100571.97;7389243;19;20481;-53
2022/12/14 07:02:45;;;;;;;32.30;14.38;;;;;;;-6.40;44.32;100565.06;7388316;19;20018;-53
2022/12/14 07:05:11;;;;;;;36.75;15.50;;;;;;;-6.23;44.30;100567.78;7390681;19;20106;-52
2022/12/14 07:07:37;;;;;;;35.28;15.70;;;;;;;-5.96;43.68;100566.19;7390867;19;20001;-50
2022/12/14 07:10:05;;;;;;;34.10;14.40;;;;;;;-6.04;43.94;100565.78;7388203;19;20070;-52
2022/12/14 07:12:30;;;;;;;34.38;14.98;;;;;;;-6.05;43.82;100570.28;7385716;19;20014;-53
2022/12/14 07:14:57;;;;;;;36.08;15.70;;;;;;;-5.24;42.33;100564.81;7389702;19;20352;-54
2022/12/14 07:17:23;;;;;;;33.75;15.48;;;;;;;-5.34;42.01;100551.34;7390321;19;20006;-54
2022/12/14 07:19:48;;;;;;;31.90;15.25;;;;;;;-5.70;42.97;100556.06;7390771;19;20716;-54
2022/12/14 07:22:14;;;;;;;32.08;15.10;;;;;;;-5.73;42.89;100555.75;7388953;19;20028;-54
2022/12/14 07:24:40;;;;;;;39.30;15.98;;;;;;;-5.76;42.91;100557.00;7390390;19;19995;-53
2022/12/14 07:27:06;;;;;;;35.13;15.27;;;;;;;-5.91;43.26;100554.06;7390318;19;20022;-53
2022/12/14 07:29:32;;;;;;;37.55;15.48;;;;;;;-6.07;43.53;100545.81;7388727;19;20058;-54
2022/12/14 07:31:58;;;;;;;38.50;17.10;;;;;;;-5.91;43.44;100549.56;7393566;19;20026;-51
2022/12/14 07:34:24;;;;;;;36.70;16.20;;;;;;;-5.50;42.75;100544.16;7396570;19;20115;-54
2022/12/14 07:36:52;;;;;;;36.47;15.50;;;;;;;-5.43;42.39;100545.63;7397241;19;20002;-55
2022/12/14 07:39:18;;;;;;;31.35;15.07;;;;;;;-5.70;42.63;100548.09;7398225;19;20037;-54
2022/12/14 07:41:46;;;;;;;32.13;14.50;;;;;;;-5.51;42.47;100543.34;7395107;19;20026;-54
2022/12/14 07:44:12;;;;;;;30.25;14.10;;;;;;;-5.60;42.62;100544.81;7396192;19;20006;-54
2022/12/14 07:46:39;;;;;;;32.25;15.18;;;;;;;-5.58;42.71;100537.38;7396532;19;20010;-54
2022/12/14 07:49:04;;;;;;;31.85;14.35;;;;;;;-5.43;42.36;100539.50;7396369;19;20007;-50
2022/12/14 07:51:34;;;;;;;33.92;13.98;;;;;;;-5.16;41.83;100536.22;7395449;19;20581;-51
2022/12/14 07:54:01;;;;;;;31.38;14.43;;;;;;;-5.15;41.70;100541.31;7396421;19;20010;-50
2022/12/14 07:56:35;;;;;;;32.83;14.40;;;;;;;-5.17;42.02;100542.59;7397172;19;20022;-49
2022/12/14 07:59:02;;;;;;;33.78;14.30;;;;;;;-4.94;41.39;100541.59;7397075;19;20013;-54
2022/12/14 08:01:30;;;;;;;32.08;14.57;;;;;;;-5.21;42.22;100535.06;7393326;19;20094;-54
2022/12/14 08:03:59;;;;;;;31.75;14.00;;;;;;;-5.13;42.02;100541.06;7395440;19;20245;-54
2022/12/14 08:06:27;;;;;;;35.25;14.27;;;;;;;-5.14;42.34;100537.56;7394897;19;20009;-54
2022/12/14 08:08:53;;;;;;;38.17;14.65;;;;;;;-5.09;42.14;100529.66;7394193;19;20107;-52
2022/12/14 08:11:21;;;;;;;33.72;15.25;;;;;;;-5.12;42.05;100537.34;7394266;19;20010;-55
2022/12/14 08:13:51;;;;;;;32.47;14.80;;;;;;;-5.41;42.64;100540.06;7395639;19;20002;-56
2022/12/14 08:16:16;;;;;;;37.40;15.52;;;;;;;-5.49;42.92;100535.16;7395965;19;20001;-54
2022/12/14 08:18:43;;;;;;;29.90;14.63;;;;;;;-5.62;42.96;100536.25;7395382;19;20058;-54
2022/12/14 08:21:11;;;;;;;33.05;14.77;;;;;;;-5.70;43.49;100540.13;7394858;19;20079;-54
2022/12/14 08:23:37;;;;;;;31.48;14.48;;;;;;;-5.37;43.30;100535.88;7394547;19;19999;-53
2022/12/14 08:26:05;;;;;;;35.10;13.85;;;;;;;-4.83;41.97;100535.41;7393636;19;20002;-53
2022/12/14 08:28:32;;;;;;;34.38;15.23;;;;;;;-4.71;41.82;100535.28;7393756;19;19998;-53
2022/12/14 08:31:03;;;;;;;37.47;14.77;;;;;;;-4.93;42.17;100541.38;7394593;19;20025;-55
2022/12/14 08:33:29;;;;;;;32.13;13.90;;;;;;;-4.78;42.18;100540.78;7394860;19;20070;-55
2022/12/14 08:35:54;;;;;;;31.70;14.68;;;;;;;-4.43;41.67;100537.00;7395501;19;19998;-53
2022/12/14 08:38:20;;;;;;;32.50;15.13;;;;;;;-4.23;41.33;100543.63;7395093;19;20006;-55
2022/12/14 08:40:46;;;;;;;35.00;15.43;;;;;;;-4.13;41.26;100530.41;7393289;19;19998;-54
2022/12/14 08:43:12;;;;;;;32.45;15.43;;;;;;;-4.14;41.22;100537.59;7394328;19;20019;-54
2022/12/14 08:45:38;;;;;;;34.42;16.65;;;;;;;-4.23;41.74;100528.44;7392790;19;20002;-54
2022/12/14 08:48:03;;;;;;;37.40;18.20;;;;;;;-4.14;41.80;100524.28;7393665;19;19991;-53
2022/12/14 08:50:30;;;;;;;42.15;16.80;;;;;;;-4.18;41.93;100531.19;7394069;19;20006;-54
2022/12/14 08:52:56;;;;;;;38.75;16.98;;;;;;;-3.97;41.65;100528.72;7392071;19;20122;-52
2022/12/14 08:55:22;;;;;;;32.78;16.10;;;;;;;-3.93;41.67;100527.16;7394883;19;19991;-54
2022/12/14 08:57:48;;;;;;;40.00;17.60;;;;;;;-3.74;41.67;100522.31;7392540;19;20018;-53
2022/12/14 09:00:14;;;;;;;36.38;16.17;;;;;;;-3.64;41.26;100524.28;7392913;19;19995;-54
2022/12/14 09:02:40;;;;;;;31.92;15.43;;;;;;;-3.93;42.02;100519.16;7391082;19;20009;-54
2022/12/14 09:05:07;;;;;;;36.63;16.63;;;;;;;-4.07;42.07;100519.56;7392791;19;19998;-54
2022/12/14 09:07:32;;;;;;;33.42;17.15;;;;;;;-4.35;43.06;100512.59;7393377;19;19998;-54
2022/12/14 09:09:58;;;;;;;33.88;17.23;;;;;;;-4.36;43.56;100505.63;7394368;19;20017;-54
2022/12/14 09:12:24;;;;;;;33.70;17.25;;;;;;;-3.85;43.02;100509.91;7389978;19;20002;-53
2022/12/14 09:14:50;;;;;;;38.70;16.67;;;;;;;-3.53;42.24;100507.28;7393167;19;20003;-53
2022/12/14 09:17:17;;;;;;;33.30;16.25;;;;;;;-3.31;42.07;100501.06;7393806;19;20048;-54
2022/12/14 09:19:43;;;;;;;37.63;17.02;;;;;;;-3.27;42.13;100502.16;7394764;19;20522;-55
2022/12/14 09:22:09;;;;;;;33.08;16.58;;;;;;;-3.29;42.22;100502.41;7391311;19;19999;-54
2022/12/14 09:24:35;;;;;;;33.35;15.27;;;;;;;-3.12;42.35;100512.94;7391295;19;20006;-54
2022/12/14 09:27:02;;;;;;;33.25;15.98;;;;;;;-2.98;41.94;100505.28;7393506;19;20375;-53
2022/12/14 09:29:28;;;;;;;32.13;16.08;;;;;;;-2.88;41.99;100501.88;7393141;19;20006;-55
2022/12/14 09:31:54;;;;;;;37.40;17.08;;;;;;;-2.92;42.13;100504.28;7392099;19;20010;-55
2022/12/14 09:34:22;;;;;;;32.22;15.45;;;;;;;-3.07;42.62;100502.31;7392391;19;20002;-54
2022/12/14 09:36:48;;;;;;;31.13;15.35;;;;;;;-2.97;42.70;100499.69;7393645;19;20458;-54
2022/12/14 09:39:14;;;;;;;29.30;14.85;;;;;;;-2.82;42.55;100503.53;7391493;19;20016;-55
2022/12/14 09:41:43;;;;;;;34.47;15.85;;;;;;;-2.75;42.56;100501.44;7391369;19;20483;-54
2022/12/14 09:44:22;;;;;;;32.00;14.57;;;;;;;-2.59;42.43;100500.44;7390579;19;20010;-56
2022/12/14 09:47:30;;;;;;;30.25;14.45;;;;;;;-2.57;42.54;100492.19;7393472;19;19994;-54
2022/12/14 09:50:14;;;;;;;28.85;14.27;;;;;;;-2.63;42.57;100493.22;7389506;19;20186;-55
2022/12/14 09:52:45;;;;;;;30.30;13.80;;;;;;;-2.60;42.80;100493.50;7388624;19;20058;-55
2022/12/14 09:55:28;;;;;;;33.60;15.05;;;;;;;-2.68;43.08;100488.66;7392142;19;20006;-55
2022/12/14 09:58:21;;;;;;;38.05;15.40;;;;;;;-2.47;43.03;100489.53;7393556;19;20034;-55
2022/12/14 10:00:57;;;;;;;31.30;14.70;;;;;;;-2.48;42.75;100487.13;7388920;19;20006;-54
2022/12/14 10:04:09;;;;;;;33.88;14.43;;;;;;;-2.15;42.74;100487.78;7391727;19;20026;-55
2022/12/14 10:07:17;;;;;;;30.00;14.60;;;;;;;-2.04;42.56;100478.75;7390002;19;20007;-55
2022/12/14 10:10:25;;;;;;;28.85;13.98;;;;;;;-1.99;42.84;100477.91;7392639;19;20033;-55
2022/12/14 10:13:30;;;;;;;30.60;14.70;;;;;;;-1.73;42.33;100470.75;7389016;19;20466;-56
2022/12/14 10:16:09;;;;;;;27.98;14.45;;;;;;;-1.74;42.16;100469.16;7392266;19;20001;-56
2022/12/14 10:18:38;;;;;;;29.52;13.77;;;;;;;-1.69;42.09;100474.50;7391111;19;19995;-56
2022/12/14 10:21:14;;;;;;;31.50;14.77;;;;;;;-1.74;42.35;100466.47;7390649;19;20018;-56
2022/12/14 10:23:55;;;;;;;27.40;14.25;;;;;;;-1.62;42.49;100453.63;7389583;19;19999;-55
2022/12/14 10:26:26;;;;;;;33.50;14.70;;;;;;;-1.78;42.84;100455.47;7392114;19;20002;-55
2022/12/14 10:29:01;;;;;;;29.30;14.38;;;;;;;-1.71;42.56;100455.22;7389958;19;19994;-54
2022/12/14 10:31:43;;;;;;;28.17;14.15;;;;;;;-1.78;42.81;100449.34;7389853;19;20010;-54
2022/12/14 10:34:23;;;;;;;28.15;14.02;;;;;;;-1.82;43.16;100440.25;7391085;19;20482;-55
2022/12/14 10:36:50;;;;;;;29.30;13.68;;;;;;;-1.64;43.25;100437.03;7391287;19;20107;-54
2022/12/14 10:39:45;;;;;;;30.95;14.43;;;;;;;-1.49;42.69;100438.91;7391518;19;20006;-55
2022/12/14 10:42:20;;;;;;;27.52;13.27;;;;;;;-1.46;42.89;100435.69;7387875;19;20001;-55
2022/12/14 10:45:06;;;;;;;30.35;13.20;;;;;;;-1.33;42.68;100440.47;7391687;19;20363;-56
2022/12/14 10:47:45;;;;;;;27.63;13.23;;;;;;;-1.14;42.38;100440.75;7390153;19;20003;-56
2022/12/14 10:50:39;;;;;;;28.30;13.00;;;;;;;-1.11;42.42;100447.41;7391980;19;20006;-54
2022/12/14 10:53:16;;;;;;;32.17;14.25;;;;;;;-1.01;42.46;100442.06;7390210;19;20006;-54
2022/12/14 10:55:44;;;;;;;30.33;14.65;;;;;;;-1.10;42.90;100439.13;7390918;19;20008;-55
2022/12/14 10:58:11;;;;;;;29.63;13.85;;;;;;;-1.13;43.25;100439.66;7390743;19;19998;-56
2022/12/14 11:00:37;;;;;;;29.00;14.88;;;;;;;-1.13;43.26;100433.50;7394960;19;19995;-54
2022/12/14 11:03:11;;;;;;;28.80;13.30;;;;;;;-1.00;43.25;100434.81;7390967;19;20007;-54
2022/12/14 11:05:55;;;;;;;30.30;14.20;;;;;;;-0.85;42.97;100428.63;7396692;19;20478;-56
2022/12/14 11:08:56;;;;;;;32.00;14.05;;;;;;;-0.98;43.63;100422.72;7398013;19;20006;-54
2022/12/14 11:11:24;;;;;;;28.52;14.07;;;;;;;-0.95;43.54;100427.56;7391887;19;20010;-57
2022/12/14 11:14:05;;;;;;;29.23;14.25;;;;;;;-0.94;43.45;100425.69;7396500;19;20006;-57
2022/12/14 11:16:37;;;;;;;28.33;14.32;;;;;;;-0.93;43.70;100421.94;7395928;19;20006;-57
2022/12/14 11:19:05;;;;;;;24.48;13.00;;;;;;;-0.90;43.44;100415.22;7398865;19;20031;-56
2022/12/14 11:21:35;;;;;;;30.60;14.32;;;;;;;-0.89;43.48;100409.59;7395183;19;20145;-56
2022/12/14 11:24:01;;;;;;;24.67;13.45;;;;;;;-0.88;43.48;100403.16;7395653;19;20502;-56
2022/12/14 11:26:36;;;;;;;26.98;12.80;;;;;;;-0.72;43.06;100395.88;7395364;19;19998;-57
2022/12/14 11:29:15;;;;;;;28.23;13.43;;;;;;;-0.71;43.23;100400.13;7397898;19;20006;-56
2022/12/14 11:31:51;;;;;;;28.60;13.48;;;;;;;-0.61;43.11;100396.59;7393478;19;19995;-56
2022/12/14 11:34:33;;;;;;;31.50;14.70;;;;;;;-0.54;43.04;100407.84;7396975;19;20492;-56
2022/12/14 11:37:29;;;;;;;27.35;13.82;;;;;;;-0.66;43.23;100405.47;7395828;19;20062;-57
2022/12/14 11:40:04;;;;;;;25.80;13.52;;;;;;;-0.67;43.25;100403.09;7397389;19;20030;-56